sensor_id;sensor_type;location;lat;lon;timestamp;pressure;altitude;pressure_sealevel;temperature;humidity
62237;BME280;69163;48.778;2.308;2023-08-01T00:00:20;99634.63;;;21.12;46.63
62237;BME280;69163;48.778;2.308;2023-08-01T00:02:45;99629.74;;;21.32;46.64
62237;BME280;69163;48.778;2.308;2023-08-01T00:05:11;99630.22;;;21.43;46.47
62237;BME280;69163;48.778;2.308;2023-08-01T00:07:36;99626.09;;;21.51;46.64
62237;BME280;69163;48.778;2.308;2023-08-01T00:10:01;99631.61;;;21.09;46.57
62237;BME280;69163;48.778;2.308;2023-08-01T00:12:27;99626.90;;;21.15;46.45
62237;BME280;69163;48.778;2.308;2023-08-01T00:14:52;99631.15;;;21.03;46.58
62237;BME280;69163;48.778;2.308;2023-08-01T00:17:18;99636.20;;;21.27;46.52
62237;BME280;69163;48.778;2.308;2023-08-01T00:19:43;99634.57;;;21.36;46.37
62237;BME280;69163;48.778;2.308;2023-08-01T00:22:08;99636.29;;;21.07;46.41
62237;BME280;69163;48.778;2.308;2023-08-01T00:24:33;99637.84;;;21.16;46.23
62237;BME280;69163;48.778;2.308;2023-08-01T00:26:59;99630.17;;;21.02;46.40
62237;BME280;69163;48.778;2.308;2023-08-01T00:29:24;99625.14;;;21.55;46.33
62237;BME280;69163;48.778;2.308;2023-08-01T00:31:49;99623.65;;;21.39;46.19
62237;BME280;69163;48.778;2.308;2023-08-01T00:34:14;99628.75;;;21.41;46.49
62237;BME280;69163;48.778;2.308;2023-08-01T00:36:39;99627.44;;;21.16;46.47
62237;BME280;69163;48.778;2.308;2023-08-01T00:39:05;99630.54;;;21.13;46.15
62237;BME280;69163;48.778;2.308;2023-08-01T00:41:30;99625.11;;;21.08;46.18
62237;BME280;69163;48.778;2.308;2023-08-01T00:43:56;99619.41;;;21.23;45.91
62237;BME280;69163;48.778;2.308;2023-08-01T00:46:21;99617.82;;;21.57;45.70
62237;BME280;69163;48.778;2.308;2023-08-01T00:48:46;99618.04;;;21.36;45.61
62237;BME280;69163;48.778;2.308;2023-08-01T00:51:11;99616.66;;;21.90;45.47
62237;BME280;69163;48.778;2.308;2023-08-01T00:53:36;99606.51;;;21.85;45.55
62237;BME280;69163;48.778;2.308;2023-08-01T00:56:00;99603.56;;;21.23;45.35
62237;BME280;69163;48.778;2.308;2023-08-01T00:58:26;99593.26;;;21.32;45.18
62237;BME280;69163;48.778;2.308;2023-08-01T01:00:51;99592.53;;;21.54;45.18
62237;BME280;69163;48.778;2.308;2023-08-01T01:03:17;99591.35;;;21.54;45.16
62237;BME280;69163;48.778;2.308;2023-08-01T01:05:47;99588.36;;;22.02;45.13
62237;BME280;69163;48.778;2.308;2023-08-01T01:08:07;99584.91;;;21.78;45.13
62237;BME280;69163;48.778;2.308;2023-08-01T01:10:32;99589.78;;;21.92;44.91
62237;BME280;69163;48.778;2.308;2023-08-01T01:12:58;99589.21;;;21.62;45.02
62237;BME280;69163;48.778;2.308;2023-08-01T01:15:22;99587.37;;;21.89;44.91
62237;BME280;69163;48.778;2.308;2023-08-01T01:17:48;99583.49;;;21.66;44.93
62237;BME280;69163;48.778;2.308;2023-08-01T01:20:13;99585.90;;;21.67;44.87
62237;BME280;69163;48.778;2.308;2023-08-01T01:22:38;99574.82;;;22.18;44.84
62237;BME280;69163;48.778;2.308;2023-08-01T01:25:04;99570.70;;;21.69;44.88
62237;BME280;69163;48.778;2.308;2023-08-01T01:27:29;99572.40;;;22.19;44.80
62237;BME280;69163;48.778;2.308;2023-08-01T01:29:55;99571.05;;;21.73;44.77
62237;BME280;69163;48.778;2.308;2023-08-01T01:32:20;99579.46;;;21.69;44.80
62237;BME280;69163;48.778;2.308;2023-08-01T01:34:45;99577.40;;;21.95;44.79
62237;BME280;69163;48.778;2.308;2023-08-01T01:37:09;99578.42;;;22.19;44.74
62237;BME280;69163;48.778;2.308;2023-08-01T01:39:34;99572.30;;;21.66;44.84
62237;BME280;69163;48.778;2.308;2023-08-01T01:42:00;99573.89;;;21.67;44.79
62237;BME280;69163;48.778;2.308;2023-08-01T01:44:25;99575.42;;;22.25;44.66
62237;BME280;69163;48.778;2.308;2023-08-01T01:46:50;99580.61;;;21.80;44.57
62237;BME280;69163;48.778;2.308;2023-08-01T01:49:15;99610.98;;;21.71;44.68
62237;BME280;69163;48.778;2.308;2023-08-01T01:51:41;99619.47;;;22.25;44.58
62237;BME280;69163;48.778;2.308;2023-08-01T01:54:05;99615.85;;;21.81;44.49
62237;BME280;69163;48.778;2.308;2023-08-01T01:56:31;99618.10;;;21.81;44.48
62237;BME280;69163;48.778;2.308;2023-08-01T01:58:57;99621.78;;;21.84;44.42
62237;BME280;69163;48.778;2.308;2023-08-01T02:01:22;99617.61;;;21.84;44.42
62237;BME280;69163;48.778;2.308;2023-08-01T02:03:47;99612.95;;;22.01;44.48
62237;BME280;69163;48.778;2.308;2023-08-01T02:06:13;99617.16;;;21.81;44.43
62237;BME280;69163;48.778;2.308;2023-08-01T02:08:38;99626.82;;;21.76;44.49
62237;BME280;69163;48.778;2.308;2023-08-01T02:11:04;99622.91;;;21.78;44.43
62237;BME280;69163;48.778;2.308;2023-08-01T02:13:29;99617.63;;;21.78;44.42
62237;BME280;69163;48.778;2.308;2023-08-01T02:15:53;99619.78;;;21.76;44.43
62237;BME280;69163;48.778;2.308;2023-08-01T02:18:19;99623.34;;;22.27;44.35
62237;BME280;69163;48.778;2.308;2023-08-01T02:20:44;99626.30;;;21.83;44.30
62237;BME280;69163;48.778;2.308;2023-08-01T02:23:08;99624.37;;;22.31;44.32
62237;BME280;69163;48.778;2.308;2023-08-01T02:25:38;99626.89;;;22.02;44.37
62237;BME280;69163;48.778;2.308;2023-08-01T02:27:59;99628.46;;;21.78;44.33
62237;BME280;69163;48.778;2.308;2023-08-01T02:30:25;99625.00;;;22.36;44.26
62237;BME280;69163;48.778;2.308;2023-08-01T02:32:50;99632.30;;;22.39;44.55
62237;BME280;69163;48.778;2.308;2023-08-01T02:35:14;99630.81;;;21.92;44.73
62237;BME280;69163;48.778;2.308;2023-08-01T02:37:40;99640.36;;;22.18;44.89
62237;BME280;69163;48.778;2.308;2023-08-01T02:40:09;99650.79;;;21.98;44.98
62237;BME280;69163;48.778;2.308;2023-08-01T02:42:31;99653.48;;;22.21;45.12
62237;BME280;69163;48.778;2.308;2023-08-01T02:44:57;99649.26;;;22.17;45.21
62237;BME280;69163;48.778;2.308;2023-08-01T02:47:21;99652.12;;;21.97;45.32
62237;BME280;69163;48.778;2.308;2023-08-01T02:49:47;99658.16;;;21.94;45.47
62237;BME280;69163;48.778;2.308;2023-08-01T02:52:12;99663.49;;;22.20;45.42
62237;BME280;69163;48.778;2.308;2023-08-01T02:54:37;99661.50;;;22.14;45.63
62237;BME280;69163;48.778;2.308;2023-08-01T02:57:02;99667.28;;;21.91;45.67
62237;BME280;69163;48.778;2.308;2023-08-01T02:59:27;99668.59;;;22.12;45.75
62237;BME280;69163;48.778;2.308;2023-08-01T03:01:53;99674.76;;;21.90;45.72
62237;BME280;69163;48.778;2.308;2023-08-01T03:04:18;99680.66;;;22.11;45.86
62237;BME280;69163;48.778;2.308;2023-08-01T03:06:43;99684.18;;;21.98;46.04
62237;BME280;69163;48.778;2.308;2023-08-01T03:09:08;99683.83;;;21.74;46.00
62237;BME280;69163;48.778;2.308;2023-08-01T03:11:33;99686.08;;;21.76;45.94
62237;BME280;69163;48.778;2.308;2023-08-01T03:13:59;99695.74;;;21.83;45.72
62237;BME280;69163;48.778;2.308;2023-08-01T03:16:24;99704.37;;;22.19;46.07
62237;BME280;69163;48.778;2.308;2023-08-01T03:18:49;99705.34;;;22.28;45.82
62237;BME280;69163;48.778;2.308;2023-08-01T03:21:14;99709.67;;;22.22;45.93
62237;BME280;69163;48.778;2.308;2023-08-01T03:23:39;99710.04;;;21.81;45.82
62237;BME280;69163;48.778;2.308;2023-08-01T03:26:05;99717.33;;;21.79;45.76
62237;BME280;69163;48.778;2.308;2023-08-01T03:28:30;99720.56;;;21.75;45.82
62237;BME280;69163;48.778;2.308;2023-08-01T03:30:56;99714.36;;;22.06;45.70
62237;BME280;69163;48.778;2.308;2023-08-01T03:33:20;99710.15;;;21.80;45.72
62237;BME280;69163;48.778;2.308;2023-08-01T03:35:46;99721.76;;;21.83;45.60
62237;BME280;69163;48.778;2.308;2023-08-01T03:38:11;99718.86;;;21.73;45.73
62237;BME280;69163;48.778;2.308;2023-08-01T03:40:36;99725.35;;;21.81;45.56
62237;BME280;69163;48.778;2.308;2023-08-01T03:43:01;99718.41;;;21.80;45.55
62237;BME280;69163;48.778;2.308;2023-08-01T03:45:26;99725.58;;;21.83;45.47
62237;BME280;69163;48.778;2.308;2023-08-01T03:47:52;99734.45;;;22.00;45.57
62237;BME280;69163;48.778;2.308;2023-08-01T03:50:18;99742.17;;;22.00;45.56
62237;BME280;69163;48.778;2.308;2023-08-01T03:52:42;99740.95;;;22.23;45.53
62237;BME280;69163;48.778;2.308;2023-08-01T03:55:07;99746.34;;;21.70;45.56
62237;BME280;69163;48.778;2.308;2023-08-01T03:57:32;99748.82;;;21.80;45.37
62237;BME280;69163;48.778;2.308;2023-08-01T03:59:58;99751.91;;;21.76;45.43
62237;BME280;69163;48.778;2.308;2023-08-01T04:02:22;99759.07;;;22.17;45.48
62237;BME280;69163;48.778;2.308;2023-08-01T04:04:48;99761.06;;;21.67;45.49
62237;BME280;69163;48.778;2.308;2023-08-01T04:07:13;99757.36;;;21.71;45.38
62237;BME280;69163;48.778;2.308;2023-08-01T04:09:38;99759.57;;;21.89;45.44
62237;BME280;69163;48.778;2.308;2023-08-01T04:12:04;99752.62;;;21.68;45.36
62237;BME280;69163;48.778;2.308;2023-08-01T04:14:29;99756.53;;;21.93;45.27
62237;BME280;69163;48.778;2.308;2023-08-01T04:16:54;99755.90;;;22.18;45.26
62237;BME280;69163;48.778;2.308;2023-08-01T04:19:19;99753.11;;;21.69;45.24
62237;BME280;69163;48.778;2.308;2023-08-01T04:21:44;99756.67;;;22.13;45.26
62237;BME280;69163;48.778;2.308;2023-08-01T04:24:10;99753.49;;;22.13;45.25
62237;BME280;69163;48.778;2.308;2023-08-01T04:26:34;99749.96;;;21.87;45.23
62237;BME280;69163;48.778;2.308;2023-08-01T04:29:00;99758.04;;;21.69;45.13
62237;BME280;69163;48.778;2.308;2023-08-01T04:31:26;99758.80;;;22.21;45.05
62237;BME280;69163;48.778;2.308;2023-08-01T04:33:51;99758.89;;;21.63;45.17
62237;BME280;69163;48.778;2.308;2023-08-01T04:36:16;99754.35;;;21.45;45.04
62237;BME280;69163;48.778;2.308;2023-08-01T04:38:41;99751.60;;;21.93;45.01
62237;BME280;69163;48.778;2.308;2023-08-01T04:41:06;99754.19;;;21.86;45.08
62237;BME280;69163;48.778;2.308;2023-08-01T04:43:32;99759.85;;;21.63;45.03
62237;BME280;69163;48.778;2.308;2023-08-01T04:45:57;99759.82;;;21.91;44.98
62237;BME280;69163;48.778;2.308;2023-08-01T04:48:21;99760.95;;;21.63;44.98
62237;BME280;69163;48.778;2.308;2023-08-01T04:50:46;99762.27;;;22.09;44.99
62237;BME280;69163;48.778;2.308;2023-08-01T04:53:12;99759.95;;;22.15;44.87
62237;BME280;69163;48.778;2.308;2023-08-01T04:55:37;99761.67;;;22.12;44.88
62237;BME280;69163;48.778;2.308;2023-08-01T04:58:02;99762.65;;;21.73;44.72
62237;BME280;69163;48.778;2.308;2023-08-01T05:00:27;99758.77;;;21.64;44.84
62237;BME280;69163;48.778;2.308;2023-08-01T05:02:53;99761.42;;;21.92;44.71
62237;BME280;69163;48.778;2.308;2023-08-01T05:05:18;99762.58;;;21.65;44.76
62237;BME280;69163;48.778;2.308;2023-08-01T05:07:44;99765.57;;;21.94;44.67
62237;BME280;69163;48.778;2.308;2023-08-01T05:10:09;99772.71;;;21.69;44.66
62237;BME280;69163;48.778;2.308;2023-08-01T05:12:33;99774.00;;;21.63;44.72
62237;BME280;69163;48.778;2.308;2023-08-01T05:14:59;99773.46;;;21.41;44.68
62237;BME280;69163;48.778;2.308;2023-08-01T05:17:24;99775.87;;;21.87;44.66
62237;BME280;69163;48.778;2.308;2023-08-01T05:19:50;99777.63;;;21.87;44.64
62237;BME280;69163;48.778;2.308;2023-08-01T05:22:15;99781.07;;;21.65;44.58
62237;BME280;69163;48.778;2.308;2023-08-01T05:24:40;99780.65;;;21.62;44.61
62237;BME280;69163;48.778;2.308;2023-08-01T05:27:06;99777.96;;;21.60;44.58
62237;BME280;69163;48.778;2.308;2023-08-01T05:29:31;99782.28;;;21.62;44.50
62237;BME280;69163;48.778;2.308;2023-08-01T05:31:56;99785.55;;;21.58;44.55
62237;BME280;69163;48.778;2.308;2023-08-01T05:34:21;99792.02;;;21.85;44.48
62237;BME280;69163;48.778;2.308;2023-08-01T05:36:46;99795.00;;;22.07;44.49
62237;BME280;69163;48.778;2.308;2023-08-01T05:39:11;99801.27;;;22.11;44.43
62237;BME280;69163;48.778;2.308;2023-08-01T05:41:36;99806.16;;;22.14;44.34
62237;BME280;69163;48.778;2.308;2023-08-01T05:44:02;99807.90;;;21.90;44.27
62237;BME280;69163;48.778;2.308;2023-08-01T05:46:27;99812.76;;;21.88;44.31
62237;BME280;69163;48.778;2.308;2023-08-01T05:48:52;99820.95;;;21.56;44.40
62237;BME280;69163;48.778;2.308;2023-08-01T05:51:18;99821.91;;;21.75;44.44
62237;BME280;69163;48.778;2.308;2023-08-01T05:53:43;99818.17;;;21.77;44.39
62237;BME280;69163;48.778;2.308;2023-08-01T05:56:08;99816.31;;;21.83;44.28
62237;BME280;69163;48.778;2.308;2023-08-01T05:58:33;99821.56;;;22.02;44.33
62237;BME280;69163;48.778;2.308;2023-08-01T06:00:59;99820.93;;;21.83;44.22
62237;BME280;69163;48.778;2.308;2023-08-01T06:03:23;99824.17;;;22.09;44.16
62237;BME280;69163;48.778;2.308;2023-08-01T06:05:49;99825.53;;;22.14;44.03
62237;BME280;69163;48.778;2.308;2023-08-01T06:08:14;99827.72;;;21.89;44.02
62237;BME280;69163;48.778;2.308;2023-08-01T06:10:39;99830.36;;;21.61;44.09
62237;BME280;69163;48.778;2.308;2023-08-01T06:13:04;99829.42;;;21.84;44.06
62237;BME280;69163;48.778;2.308;2023-08-01T06:15:30;99835.67;;;22.01;44.11
62237;BME280;69163;48.778;2.308;2023-08-01T06:17:55;99834.56;;;22.07;44.00
62237;BME280;69163;48.778;2.308;2023-08-01T06:20:20;99839.25;;;21.59;44.00
62237;BME280;69163;48.778;2.308;2023-08-01T06:22:45;99840.79;;;21.80;43.96
62237;BME280;69163;48.778;2.308;2023-08-01T06:25:10;99844.37;;;21.78;43.98
62237;BME280;69163;48.778;2.308;2023-08-01T06:27:35;99845.22;;;21.80;43.92
62237;BME280;69163;48.778;2.308;2023-08-01T06:30:01;99845.73;;;21.55;43.92
62237;BME280;69163;48.778;2.308;2023-08-01T06:32:26;99846.14;;;21.58;43.86
62237;BME280;69163;48.778;2.308;2023-08-01T06:34:51;99839.94;;;21.81;43.83
62237;BME280;69163;48.778;2.308;2023-08-01T06:37:17;99842.96;;;21.83;43.78
62237;BME280;69163;48.778;2.308;2023-08-01T06:39:42;99840.30;;;21.78;43.82
62237;BME280;69163;48.778;2.308;2023-08-01T06:42:07;99844.13;;;21.55;43.78
62237;BME280;69163;48.778;2.308;2023-08-01T06:44:33;99847.92;;;22.03;43.77
62237;BME280;69163;48.778;2.308;2023-08-01T06:46:58;99851.18;;;21.69;43.90
62237;BME280;69163;48.778;2.308;2023-08-01T06:49:22;99854.96;;;21.96;43.84
62237;BME280;69163;48.778;2.308;2023-08-01T06:51:47;99857.70;;;21.51;43.77
62237;BME280;69163;48.778;2.308;2023-08-01T06:54:13;99860.73;;;21.54;43.70
62237;BME280;69163;48.778;2.308;2023-08-01T06:56:38;99861.53;;;22.00;43.69
62237;BME280;69163;48.778;2.308;2023-08-01T06:59:04;99866.15;;;21.78;43.65
62237;BME280;69163;48.778;2.308;2023-08-01T07:01:29;99868.24;;;21.81;43.58
62237;BME280;69163;48.778;2.308;2023-08-01T07:03:54;99870.57;;;21.54;43.61
62237;BME280;69163;48.778;2.308;2023-08-01T07:06:20;99876.62;;;21.74;43.66
62237;BME280;69163;48.778;2.308;2023-08-01T07:08:45;99869.90;;;21.52;43.63
62237;BME280;69163;48.778;2.308;2023-08-01T07:11:09;99876.13;;;21.76;43.58
62237;BME280;69163;48.778;2.308;2023-08-01T07:13:35;99872.87;;;21.99;43.56
62237;BME280;69163;48.778;2.308;2023-08-01T07:16:00;99873.00;;;21.51;43.55
62237;BME280;69163;48.778;2.308;2023-08-01T07:18:25;99872.36;;;22.01;43.49
62237;BME280;69163;48.778;2.308;2023-08-01T07:20:59;99874.57;;;21.72;43.55
62237;BME280;69163;48.778;2.308;2023-08-01T07:23:16;99871.70;;;21.55;43.43
62237;BME280;69163;48.778;2.308;2023-08-01T07:25:41;99869.02;;;21.75;43.48
62237;BME280;69163;48.778;2.308;2023-08-01T07:28:06;99870.50;;;21.98;43.43
62237;BME280;69163;48.778;2.308;2023-08-01T07:30:31;99871.24;;;21.72;43.48
62237;BME280;69163;48.778;2.308;2023-08-01T07:32:57;99871.94;;;21.96;43.44
62237;BME280;69163;48.778;2.308;2023-08-01T07:35:22;99872.68;;;21.96;43.41
62237;BME280;69163;48.778;2.308;2023-08-01T07:37:47;99872.98;;;21.96;43.42
62237;BME280;69163;48.778;2.308;2023-08-01T07:40:12;99873.66;;;21.44;43.50
62237;BME280;69163;48.778;2.308;2023-08-01T07:42:38;99873.19;;;21.66;43.49
62237;BME280;69163;48.778;2.308;2023-08-01T07:45:04;99875.03;;;21.44;43.44
62237;BME280;69163;48.778;2.308;2023-08-01T07:47:28;99883.95;;;21.92;43.41
62237;BME280;69163;48.778;2.308;2023-08-01T07:49:53;99886.95;;;21.69;43.36
62237;BME280;69163;48.778;2.308;2023-08-01T07:52:19;99894.77;;;21.52;43.21
62237;BME280;69163;48.778;2.308;2023-08-01T07:54:44;99894.55;;;21.96;43.24
62237;BME280;69163;48.778;2.308;2023-08-01T07:57:08;99900.55;;;21.51;43.20
62237;BME280;69163;48.778;2.308;2023-08-01T07:59:34;99897.57;;;21.75;43.19
62237;BME280;69163;48.778;2.308;2023-08-01T08:02:00;99900.84;;;21.71;43.22
62237;BME280;69163;48.778;2.308;2023-08-01T08:04:25;99902.61;;;21.77;43.10
62237;BME280;69163;48.778;2.308;2023-08-01T08:06:50;99901.76;;;22.00;43.11
62237;BME280;69163;48.778;2.308;2023-08-01T08:09:15;99905.37;;;21.55;43.04
62237;BME280;69163;48.778;2.308;2023-08-01T08:11:40;99907.86;;;21.99;43.06
62237;BME280;69163;48.778;2.308;2023-08-01T08:14:05;99912.45;;;21.80;42.98
62237;BME280;69163;48.778;2.308;2023-08-01T08:16:31;99908.87;;;22.04;42.97
62237;BME280;69163;48.778;2.308;2023-08-01T08:18:56;99909.12;;;21.76;43.03
62237;BME280;69163;48.778;2.308;2023-08-01T08:21:21;99912.31;;;21.75;43.02
62237;BME280;69163;48.778;2.308;2023-08-01T08:23:46;99922.26;;;22.03;42.94
62237;BME280;69163;48.778;2.308;2023-08-01T08:26:11;99930.52;;;22.02;42.96
62237;BME280;69163;48.778;2.308;2023-08-01T08:28:37;99925.06;;;21.56;42.89
62237;BME280;69163;48.778;2.308;2023-08-01T08:31:02;99918.94;;;21.81;42.89
62237;BME280;69163;48.778;2.308;2023-08-01T08:33:27;99918.40;;;21.81;42.84
62237;BME280;69163;48.778;2.308;2023-08-01T08:35:53;99913.07;;;22.04;42.86
62237;BME280;69163;48.778;2.308;2023-08-01T08:38:18;99910.80;;;22.07;42.79
62237;BME280;69163;48.778;2.308;2023-08-01T08:40:52;99917.27;;;21.54;42.86
62237;BME280;69163;48.778;2.308;2023-08-01T08:43:08;99915.99;;;21.75;42.93
62237;BME280;69163;48.778;2.308;2023-08-01T08:45:35;99920.78;;;21.99;42.91
62237;BME280;69163;48.778;2.308;2023-08-01T08:48:02;99918.43;;;21.77;42.87
62237;BME280;69163;48.778;2.308;2023-08-01T08:50:24;99920.85;;;21.76;42.88
62237;BME280;69163;48.778;2.308;2023-08-01T08:52:49;99931.36;;;22.02;42.83
62237;BME280;69163;48.778;2.308;2023-08-01T08:55:14;99926.43;;;22.03;42.78
62237;BME280;69163;48.778;2.308;2023-08-01T08:57:40;99925.38;;;21.79;42.77
62237;BME280;69163;48.778;2.308;2023-08-01T09:00:06;99927.02;;;21.81;42.71
62237;BME280;69163;48.778;2.308;2023-08-01T09:02:30;99914.30;;;22.03;42.74
62237;BME280;69163;48.778;2.308;2023-08-01T09:04:56;99926.59;;;22.01;42.77
62237;BME280;69163;48.778;2.308;2023-08-01T09:07:24;99928.87;;;21.34;43.08
62237;BME280;69163;48.778;2.308;2023-08-01T09:09:46;99924.87;;;21.37;43.15
62237;BME280;69163;48.778;2.308;2023-08-01T09:12:11;99926.98;;;21.42;43.14
62237;BME280;69163;48.778;2.308;2023-08-01T09:14:36;99922.13;;;21.41;42.88
62237;BME280;69163;48.778;2.308;2023-08-01T09:17:07;99927.64;;;21.37;42.77
62237;BME280;69163;48.778;2.308;2023-08-01T09:19:27;99925.41;;;21.54;42.79
62237;BME280;69163;48.778;2.308;2023-08-01T09:21:52;99930.96;;;21.61;42.73
62237;BME280;69163;48.778;2.308;2023-08-01T09:24:18;99925.52;;;21.82;42.75
62237;BME280;69163;48.778;2.308;2023-08-01T09:26:43;99934.64;;;21.60;42.86
62237;BME280;69163;48.778;2.308;2023-08-01T09:29:08;99932.04;;;21.52;43.03
62237;BME280;69163;48.778;2.308;2023-08-01T09:31:42;99933.75;;;21.50;43.11
62237;BME280;69163;48.778;2.308;2023-08-01T09:33:59;99932.52;;;21.74;43.18
62237;BME280;69163;48.778;2.308;2023-08-01T09:36:23;99940.06;;;21.72;43.24
62237;BME280;69163;48.778;2.308;2023-08-01T09:38:49;99940.28;;;21.77;43.23
62237;BME280;69163;48.778;2.308;2023-08-01T09:41:17;99941.93;;;21.52;43.25
62237;BME280;69163;48.778;2.308;2023-08-01T09:43:39;99939.69;;;21.54;43.29
62237;BME280;69163;48.778;2.308;2023-08-01T09:46:07;99939.30;;;21.54;43.28
62237;BME280;69163;48.778;2.308;2023-08-01T09:48:30;99934.92;;;21.55;43.26
62237;BME280;69163;48.778;2.308;2023-08-01T09:51:05;99934.75;;;21.58;43.25
62237;BME280;69163;48.778;2.308;2023-08-01T09:53:19;99929.65;;;22.03;43.40
62237;BME280;69163;48.778;2.308;2023-08-01T09:55:46;99944.12;;;22.06;43.36
62237;BME280;69163;48.778;2.308;2023-08-01T09:58:11;99942.76;;;21.58;43.37
62237;BME280;69163;48.778;2.308;2023-08-01T10:00:35;99941.61;;;21.35;43.37
62237;BME280;69163;48.778;2.308;2023-08-01T10:03:01;99944.51;;;21.80;43.40
62237;BME280;69163;48.778;2.308;2023-08-01T10:05:29;99939.01;;;22.08;43.39
62237;BME280;69163;48.778;2.308;2023-08-01T10:07:51;99945.33;;;21.81;43.46
62237;BME280;69163;48.778;2.308;2023-08-01T10:10:16;99945.71;;;22.11;43.41
62237;BME280;69163;48.778;2.308;2023-08-01T10:12:44;99942.60;;;21.62;43.44
62237;BME280;69163;48.778;2.308;2023-08-01T10:15:07;99936.06;;;21.63;43.48
62237;BME280;69163;48.778;2.308;2023-08-01T10:17:32;99934.75;;;21.60;43.45
62237;BME280;69163;48.778;2.308;2023-08-01T10:19:57;99944.49;;;21.46;43.37
62237;BME280;69163;48.778;2.308;2023-08-01T10:22:22;99944.11;;;21.68;43.43
62237;BME280;69163;48.778;2.308;2023-08-01T10:24:47;99949.44;;;21.49;43.39
62237;BME280;69163;48.778;2.308;2023-08-01T10:27:13;99945.37;;;21.71;43.37
62237;BME280;69163;48.778;2.308;2023-08-01T10:29:38;99941.84;;;21.99;43.35
62237;BME280;69163;48.778;2.308;2023-08-01T10:32:03;99939.09;;;21.50;43.40
62237;BME280;69163;48.778;2.308;2023-08-01T10:34:28;99930.82;;;21.86;43.05
62237;BME280;69163;48.778;2.308;2023-08-01T10:36:55;99928.74;;;21.83;42.91
62237;BME280;69163;48.778;2.308;2023-08-01T10:39:21;99931.68;;;21.51;43.07
62237;BME280;69163;48.778;2.308;2023-08-01T10:41:43;99925.93;;;21.79;43.10
62237;BME280;69163;48.778;2.308;2023-08-01T10:44:10;99922.75;;;21.56;43.07
62237;BME280;69163;48.778;2.308;2023-08-01T10:46:45;99926.21;;;21.75;43.12
62237;BME280;69163;48.778;2.308;2023-08-01T10:48:59;99930.68;;;21.74;43.05
62237;BME280;69163;48.778;2.308;2023-08-01T10:51:34;99942.88;;;21.98;43.02
62237;BME280;69163;48.778;2.308;2023-08-01T10:53:50;99945.91;;;21.76;42.92
62237;BME280;69163;48.778;2.308;2023-08-01T10:56:17;99952.69;;;22.01;42.88
62237;BME280;69163;48.778;2.308;2023-08-01T10:58:40;99950.35;;;21.80;42.81
62237;BME280;69163;48.778;2.308;2023-08-01T11:01:05;99934.46;;;22.08;42.78
62237;BME280;69163;48.778;2.308;2023-08-01T11:03:36;99940.74;;;21.88;42.73
62237;BME280;69163;48.778;2.308;2023-08-01T11:05:58;99942.35;;;22.38;42.78
62237;BME280;69163;48.778;2.308;2023-08-01T11:08:20;99954.51;;;21.86;42.95
62237;BME280;69163;48.778;2.308;2023-08-01T11:10:49;99955.71;;;21.85;42.97
62237;BME280;69163;48.778;2.308;2023-08-01T11:13:12;99959.29;;;21.86;43.09
62237;BME280;69163;48.778;2.308;2023-08-01T11:15:37;99961.22;;;21.86;43.17
62237;BME280;69163;48.778;2.308;2023-08-01T11:18:02;99959.61;;;21.88;43.17
62237;BME280;69163;48.778;2.308;2023-08-01T11:20:27;99947.84;;;21.89;43.25
62237;BME280;69163;48.778;2.308;2023-08-01T11:22:54;99952.67;;;22.12;43.29
62237;BME280;69163;48.778;2.308;2023-08-01T11:25:18;99944.02;;;21.87;43.33
62237;BME280;69163;48.778;2.308;2023-08-01T11:27:43;99952.32;;;21.88;43.41
62237;BME280;69163;48.778;2.308;2023-08-01T11:30:08;99951.60;;;21.87;43.55
62237;BME280;69163;48.778;2.308;2023-08-01T11:32:34;99950.24;;;21.88;43.65
62237;BME280;69163;48.778;2.308;2023-08-01T11:35:00;99947.62;;;21.63;43.69
62237;BME280;69163;48.778;2.308;2023-08-01T11:37:26;99944.51;;;21.68;43.66
62237;BME280;69163;48.778;2.308;2023-08-01T11:39:49;99941.76;;;21.93;43.68
62237;BME280;69163;48.778;2.308;2023-08-01T11:42:16;99937.48;;;21.89;43.81
62237;BME280;69163;48.778;2.308;2023-08-01T11:44:39;99944.33;;;21.66;43.81
62237;BME280;69163;48.778;2.308;2023-08-01T11:47:11;99945.13;;;21.94;43.84
62237;BME280;69163;48.778;2.308;2023-08-01T11:49:30;99950.75;;;21.93;43.80
62237;BME280;69163;48.778;2.308;2023-08-01T11:51:55;99957.72;;;21.93;43.88
62237;BME280;69163;48.778;2.308;2023-08-01T11:54:20;99946.19;;;21.98;43.76
62237;BME280;69163;48.778;2.308;2023-08-01T11:56:46;99944.50;;;21.98;43.73
62237;BME280;69163;48.778;2.308;2023-08-01T11:59:12;99944.33;;;21.96;43.80
62237;BME280;69163;48.778;2.308;2023-08-01T12:01:39;99940.24;;;21.97;43.87
62237;BME280;69163;48.778;2.308;2023-08-01T12:04:01;99937.96;;;21.75;43.89
62237;BME280;69163;48.778;2.308;2023-08-01T12:06:32;99940.60;;;22.25;43.91
62237;BME280;69163;48.778;2.308;2023-08-01T12:08:53;99939.28;;;22.05;43.83
62237;BME280;69163;48.778;2.308;2023-08-01T12:11:20;99942.11;;;21.80;43.82
62237;BME280;69163;48.778;2.308;2023-08-01T12:13:42;99949.95;;;22.05;43.86
62237;BME280;69163;48.778;2.308;2023-08-01T12:16:07;99953.29;;;22.04;43.93
62237;BME280;69163;48.778;2.308;2023-08-01T12:18:33;99947.11;;;22.06;43.90
62237;BME280;69163;48.778;2.308;2023-08-01T12:20:58;99935.68;;;22.11;43.84
62237;BME280;69163;48.778;2.308;2023-08-01T12:23:23;99935.27;;;22.15;43.86
62237;BME280;69163;48.778;2.308;2023-08-01T12:25:48;99938.24;;;22.28;43.71
62237;BME280;69163;48.778;2.308;2023-08-01T12:28:14;99936.22;;;22.18;43.78
62237;BME280;69163;48.778;2.308;2023-08-01T12:30:40;99935.97;;;22.00;43.74
62237;BME280;69163;48.778;2.308;2023-08-01T12:33:04;99941.31;;;22.25;43.68
62237;BME280;69163;48.778;2.308;2023-08-01T12:35:29;99940.17;;;22.29;43.62
62237;BME280;69163;48.778;2.308;2023-08-01T12:37:54;99925.06;;;22.25;43.74
62237;BME280;69163;48.778;2.308;2023-08-01T12:40:20;99932.78;;;22.31;43.60
62237;BME280;69163;48.778;2.308;2023-08-01T12:42:45;99930.19;;;22.33;43.60
62237;BME280;69163;48.778;2.308;2023-08-01T12:45:10;99937.65;;;21.96;43.82
62237;BME280;69163;48.778;2.308;2023-08-01T12:47:35;99938.74;;;22.44;43.81